Time,TemperatureF,DewpointF,PressureIn,WindDirection,WindDirectionDegrees,WindSpeedMPH,WindSpeedGustMPH,Humidity,HourlyPrecipIn,Conditions,Clouds,dailyrainin,SoftwareType,DateUTC
2013-03-30 00:02:00,32.0,28.0,30.18,WSW,240,2.0,-999.0,86,-99.99,,,-99.99,,2013-03-30 04:02:00,
2013-03-30 00:12:00,32.0,27.0,30.18,North,0,0.0,-999.0,80,-99.99,,,-99.99,,2013-03-30 04:12:00,
2013-03-30 00:23:00,34.0,28.0,30.17,WSW,250,1.0,-999.0,80,-99.99,,,-99.99,,2013-03-30 04:23:00,
2013-03-30 00:32:00,32.0,28.0,30.17,West,260,2.0,-999.0,86,-99.99,,,-99.99,,2013-03-30 04:32:00,
2013-03-30 00:43:00,32.0,28.0,30.17,NW,310,1.0,-999.0,86,-99.99,,,-99.99,,2013-03-30 04:43:00,
2013-03-30 00:52:00,32.0,28.0,30.18,North,0,0.0,-999.0,86,-99.99,,,-99.99,,2013-03-30 04:52:00,
2013-03-30 01:02:00,32.0,28.0,30.18,North,0,0.0,-999.0,86,-99.99,,,-99.99,,2013-03-30 05:02:00,
2013-03-30 01:12:00,32.0,28.0,30.18,North,0,0.0,-999.0,86,-99.99,,,-99.99,,2013-03-30 05:12:00,
2013-03-30 01:22:00,32.0,28.0,30.18,North,0,0.0,-999.0,86,-99.99,,,-99.99,,2013-03-30 05:22:00,
2013-03-30 01:32:00,32.0,28.0,30.18,North,0,0.0,-999.0,86,-99.99,,,-99.99,,2013-03-30 05:32:00,
2013-03-30 01:42:00,30.0,28.0,30.18,West,270,2.0,-999.0,92,-99.99,,,-99.99,,2013-03-30 05:42:00,
2013-03-30 01:52:00,30.0,27.0,30.18,West,260,1.0,-999.0,86,-99.99,,,-99.99,,2013-03-30 05:52:00,
2013-03-30 02:02:00,30.0,27.0,30.18,West,260,1.0,-999.0,86,-99.99,,,-99.99,,2013-03-30 06:02:00,
2013-03-30 02:12:00,30.0,28.0,30.18,North,0,0.0,-999.0,92,-99.99,,,-99.99,,2013-03-30 06:12:00,
2013-03-30 02:23:00,30.0,28.0,30.18,North,0,0.0,-999.0,92,-99.99,,,-99.99,,2013-03-30 06:23:00,
2013-03-30 02:32:00,32.0,28.0,30.18,NW,320,2.0,-999.0,86,-99.99,,,-99.99,,2013-03-30 06:32:00,
2013-03-30 02:42:00,30.0,28.0,30.18,NNW,330,2.0,-999.0,92,-99.99,,,-99.99,,2013-03-30 06:42:00,
2013-03-30 02:52:00,30.0,28.0,30.17,NNW,340,1.0,-999.0,92,-99.99,,,-99.99,,2013-03-30 06:52:00,
2013-03-30 03:02:00,30.0,28.0,30.17,NNW,340,1.0,-999.0,92,-99.99,,,-99.99,,2013-03-30 07:02:00,
2013-03-30 03:12:00,30.0,27.0,30.17,NNW,330,2.0,-999.0,86,-99.99,,,-99.99,,2013-03-30 07:12:00,
2013-03-30 03:22:00,30.0,27.0,30.17,NNW,340,1.0,-999.0,86,-99.99,,,-99.99,,2013-03-30 07:22:00,
2013-03-30 03:32:00,28.0,27.0,30.17,North,350,1.0,-999.0,92,-99.99,,,-99.99,,2013-03-30 07:32:00,
2013-03-30 03:42:00,30.0,28.0,30.17,NNW,340,1.0,-999.0,92,-99.99,,,-99.99,,2013-03-30 07:42:00,
2013-03-30 03:52:00,28.0,27.0,30.17,NNW,330,1.0,-999.0,92,-99.99,,,-99.99,,2013-03-30 07:52:00,
2013-03-30 04:02:00,28.0,27.0,30.17,NNW,330,1.0,-999.0,92,-99.99,,,-99.99,,2013-03-30 08:02:00,
2013-03-30 04:12:00,28.0,27.0,30.17,NNW,340,1.0,-999.0,92,-99.99,,,-99.99,,2013-03-30 08:12:00,
2013-03-30 04:22:00,28.0,28.0,30.17,North,350,1.0,-999.0,100,-99.99,,,-99.99,,2013-03-30 08:22:00,
2013-03-30 04:32:00,28.0,27.0,30.17,NNW,340,1.0,-999.0,92,-99.99,,,-99.99,,2013-03-30 08:32:00,
2013-03-30 04:42:00,28.0,27.0,30.17,NNW,330,2.0,-999.0,92,-99.99,,,-99.99,,2013-03-30 08:42:00,
2013-03-30 04:52:00,28.0,27.0,30.17,North,350,1.0,-999.0,92,-99.99,,,-99.99,,2013-03-30 08:52:00,
2013-03-30 05:02:00,28.0,27.0,30.17,North,350,1.0,-999.0,92,-99.99,,,-99.99,,2013-03-30 09:02:00,
2013-03-30 05:12:00,28.0,27.0,30.17,North,0,0.0,-999.0,92,-99.99,,,-99.99,,2013-03-30 09:12:00,
2013-03-30 05:22:00,28.0,27.0,30.17,North,0,0.0,-999.0,92,-99.99,,,-99.99,,2013-03-30 09:22:00,
2013-03-30 05:43:00,28.0,27.0,30.17,North,0,0.0,-999.0,92,-99.99,,,-99.99,,2013-03-30 09:43:00,
2013-03-30 05:53:00,28.0,27.0,30.17,North,0,0.0,-999.0,92,-99.99,,,-99.99,,2013-03-30 09:53:00,
2013-03-30 06:03:00,28.0,27.0,30.17,North,0,0.0,-999.0,92,-99.99,,,-99.99,,2013-03-30 10:03:00,
2013-03-30 06:13:00,27.0,27.0,30.18,North,0,0.0,-999.0,100,-99.99,,,-99.99,,2013-03-30 10:13:00,
2013-03-30 06:23:00,27.0,27.0,30.18,North,0,0.0,-999.0,100,-99.99,,,-99.99,,2013-03-30 10:23:00,
2013-03-30 06:33:00,27.0,27.0,30.18,North,350,1.0,-999.0,100,-99.99,,,-99.99,,2013-03-30 10:33:00,
2013-03-30 06:42:00,27.0,27.0,30.18,NNW,340,1.0,-999.0,100,-99.99,,,-99.99,,2013-03-30 10:42:00,
2013-03-30 06:52:00,27.0,25.0,30.18,North,0,0.0,-999.0,92,-99.99,,,-99.99,,2013-03-30 10:52:00,
2013-03-30 07:03:00,27.0,25.0,30.18,North,0,0.0,-999.0,92,-99.99,,,-99.99,,2013-03-30 11:03:00,
2013-03-30 07:12:00,27.0,25.0,30.19,North,0,0.0,-999.0,92,-99.99,,,-99.99,,2013-03-30 11:12:00,
2013-03-30 07:22:00,27.0,27.0,30.20,North,0,0.0,-999.0,100,-99.99,,,-99.99,,2013-03-30 11:22:00,
2013-03-30 07:33:00,27.0,27.0,30.20,WSW,240,1.0,-999.0,100,-99.99,,,-99.99,,2013-03-30 11:33:00,
2013-03-30 07:42:00,28.0,27.0,30.20,SW,230,1.0,-999.0,92,-99.99,,,-99.99,,2013-03-30 11:42:00,
2013-03-30 07:52:00,28.0,28.0,30.21,WSW,240,2.0,-999.0,100,-99.99,,,-99.99,,2013-03-30 11:52:00,
2013-03-30 08:02:00,28.0,28.0,30.21,WSW,240,2.0,-999.0,100,-99.99,,,-99.99,,2013-03-30 12:02:00,
2013-03-30 08:12:00,32.0,30.0,30.21,WSW,250,2.0,-999.0,92,-99.99,,,-99.99,,2013-03-30 12:12:00,
2013-03-30 08:22:00,37.0,34.0,30.21,North,0,0.0,-999.0,86,-99.99,,,-99.99,,2013-03-30 12:22:00,
2013-03-30 08:32:00,37.0,34.0,30.22,SW,230,1.0,-999.0,86,-99.99,,,-99.99,,2013-03-30 12:32:00,
2013-03-30 08:42:00,39.0,34.0,30.22,SSW,200,1.0,-999.0,80,-99.99,,,-99.99,,2013-03-30 12:42:00,
2013-03-30 08:52:00,41.0,32.0,30.22,West,260,2.0,-999.0,70,-99.99,,,-99.99,,2013-03-30 12:52:00,
2013-03-30 09:02:00,41.0,32.0,30.22,West,260,2.0,-999.0,70,-99.99,,,-99.99,,2013-03-30 13:02:00,
2013-03-30 09:12:00,45.0,32.0,30.22,WSW,250,2.0,-999.0,61,-99.99,,,-99.99,,2013-03-30 13:12:00,
2013-03-30 09:22:00,46.0,30.0,30.22,NNW,330,5.0,-999.0,52,-99.99,,,-99.99,,2013-03-30 13:22:00,
2013-03-30 09:32:00,46.0,30.0,30.22,NW,310,5.0,-999.0,52,-99.99,,,-99.99,,2013-03-30 13:32:00,
2013-03-30 09:42:00,48.0,30.0,30.22,NNW,330,3.0,-999.0,49,-99.99,,,-99.99,,2013-03-30 13:42:00,
2013-03-30 09:52:00,48.0,30.0,30.22,West,280,3.0,-999.0,49,-99.99,,,-99.99,,2013-03-30 13:52:00,
2013-03-30 10:02:00,48.0,30.0,30.22,West,280,3.0,-999.0,49,-99.99,,,-99.99,,2013-03-30 14:02:00,
2013-03-30 10:12:00,50.0,30.0,30.21,NNW,340,3.0,-999.0,46,-99.99,,,-99.99,,2013-03-30 14:12:00,
2013-03-30 10:23:00,52.0,28.0,30.21,WNW,290,2.0,-999.0,40,-99.99,,,-99.99,,2013-03-30 14:23:00,
2013-03-30 10:32:00,52.0,28.0,30.21,NNW,330,3.0,-999.0,40,-99.99,,,-99.99,,2013-03-30 14:32:00,
2013-03-30 10:42:00,54.0,28.0,30.21,North,350,2.0,-999.0,37,-99.99,,,-99.99,,2013-03-30 14:42:00,
2013-03-30 10:52:00,54.0,28.0,30.21,NNW,330,9.0,-999.0,37,-99.99,,,-99.99,,2013-03-30 14:52:00,
2013-03-30 11:03:00,54.0,28.0,30.21,NNW,330,9.0,-999.0,37,-99.99,,,-99.99,,2013-03-30 15:03:00,
2013-03-30 11:12:00,54.0,27.0,30.21,NW,310,8.0,-999.0,34,-99.99,,,-99.99,,2013-03-30 15:12:00,
2013-03-30 11:22:00,55.0,25.0,30.20,NW,310,7.0,-999.0,30,-99.99,,,-99.99,,2013-03-30 15:22:00,
2013-03-30 11:33:00,55.0,25.0,30.20,WNW,290,7.0,-999.0,30,-99.99,,,-99.99,,2013-03-30 15:33:00,
2013-03-30 11:43:00,55.0,25.0,30.20,WNW,300,8.0,16.0,30,-99.99,,,-99.99,,2013-03-30 15:43:00,
2013-03-30 11:52:00,55.0,28.0,30.20,WSW,240,7.0,-999.0,35,-99.99,,,-99.99,,2013-03-30 15:52:00,
2013-03-30 12:03:00,55.0,28.0,30.20,WSW,240,7.0,-999.0,35,-99.99,,,-99.99,,2013-03-30 16:03:00,
2013-03-30 12:13:00,55.0,32.0,30.19,WSW,250,7.0,-999.0,40,-99.99,,,-99.99,,2013-03-30 16:13:00,
2013-03-30 12:23:00,54.0,34.0,30.19,WSW,240,13.0,16.0,46,-99.99,,,-99.99,,2013-03-30 16:23:00,
2013-03-30 12:33:00,54.0,32.0,30.19,WSW,240,12.0,16.0,43,-99.99,,,-99.99,,2013-03-30 16:33:00,
2013-03-30 12:43:00,54.0,30.0,30.19,SW,230,8.0,-999.0,40,-99.99,,,-99.99,,2013-03-30 16:43:00,
2013-03-30 12:52:00,55.0,32.0,30.18,WSW,240,15.0,-999.0,40,-99.99,,,-99.99,,2013-03-30 16:52:00,
2013-03-30 13:02:00,55.0,32.0,30.18,WSW,240,15.0,-999.0,40,-99.99,,,-99.99,,2013-03-30 17:02:00,
2013-03-30 13:13:00,55.0,28.0,30.18,WSW,250,12.0,-999.0,35,-99.99,,,-99.99,,2013-03-30 17:13:00,
2013-03-30 13:23:00,57.0,28.0,30.17,West,260,16.0,-999.0,33,-99.99,,,-99.99,,2013-03-30 17:23:00,
2013-03-30 13:32:00,55.0,28.0,30.17,WSW,240,14.0,-999.0,35,-99.99,,,-99.99,,2013-03-30 17:32:00,
2013-03-30 13:42:00,55.0,28.0,30.17,West,270,6.0,-999.0,35,-99.99,,,-99.99,,2013-03-30 17:42:00,
2013-03-30 13:52:00,55.0,28.0,30.16,WSW,240,8.0,-999.0,35,-99.99,,,-99.99,,2013-03-30 17:52:00,
2013-03-30 14:03:00,55.0,28.0,30.16,WSW,240,8.0,-999.0,35,-99.99,,,-99.99,,2013-03-30 18:03:00,
2013-03-30 14:12:00,54.0,28.0,30.15,NNW,330,12.0,-999.0,37,-99.99,,,-99.99,,2013-03-30 18:12:00,
2013-03-30 14:22:00,57.0,27.0,30.15,NNW,330,9.0,16.0,30,-99.99,,,-99.99,,2013-03-30 18:22:00,
2013-03-30 14:32:00,55.0,27.0,30.14,NW,310,8.0,-999.0,32,-99.99,,,-99.99,,2013-03-30 18:32:00,
2013-03-30 14:42:00,55.0,27.0,30.14,NNW,340,7.0,-999.0,32,-99.99,,,-99.99,,2013-03-30 18:42:00,
2013-03-30 14:53:00,57.0,25.0,30.14,NW,320,12.0,16.0,28,-99.99,,,-99.99,,2013-03-30 18:53:00,
2013-03-30 15:03:00,57.0,25.0,30.14,NW,320,12.0,16.0,28,-99.99,,,-99.99,,2013-03-30 19:03:00,
2013-03-30 15:13:00,57.0,25.0,30.14,West,270,12.0,17.0,28,-99.99,,,-99.99,,2013-03-30 19:13:00,
2013-03-30 15:22:00,55.0,27.0,30.13,West,270,8.0,16.0,32,-99.99,,,-99.99,,2013-03-30 19:22:00,
2013-03-30 15:32:00,55.0,25.0,30.13,WNW,300,7.0,-999.0,30,-99.99,,,-99.99,,2013-03-30 19:32:00,
2013-03-30 15:42:00,55.0,27.0,30.13,West,270,7.0,-999.0,32,-99.99,,,-99.99,,2013-03-30 19:42:00,
2013-03-30 15:52:00,55.0,25.0,30.13,WNW,300,8.0,24.0,30,-99.99,,,-99.99,,2013-03-30 19:52:00,
2013-03-30 16:02:00,55.0,25.0,30.13,WNW,300,8.0,24.0,30,-99.99,,,-99.99,,2013-03-30 20:02:00,
2013-03-30 16:12:00,59.0,25.0,30.12,WNW,290,12.0,18.0,26,-99.99,,,-99.99,,2013-03-30 20:12:00,
2013-03-30 16:22:00,59.0,27.0,30.12,WSW,250,9.0,18.0,28,-99.99,,,-99.99,,2013-03-30 20:22:00,
2013-03-30 16:33:00,57.0,25.0,30.12,West,270,9.0,20.0,28,-99.99,,,-99.99,,2013-03-30 20:33:00,
2013-03-30 16:42:00,57.0,23.0,30.12,WNW,300,8.0,16.0,26,-99.99,,,-99.99,,2013-03-30 20:42:00,
2013-03-30 16:52:00,57.0,23.0,30.12,West,280,7.0,17.0,26,-99.99,,,-99.99,,2013-03-30 20:52:00,
2013-03-30 17:03:00,57.0,23.0,30.12,West,280,7.0,17.0,26,-99.99,,,-99.99,,2013-03-30 21:03:00,
2013-03-30 17:12:00,57.0,23.0,30.11,West,270,9.0,18.0,26,-99.99,,,-99.99,,2013-03-30 21:12:00,
2013-03-30 17:22:00,57.0,25.0,30.12,West,260,10.0,-999.0,28,-99.99,,,-99.99,,2013-03-30 21:22:00,
2013-03-30 17:34:00,57.0,25.0,30.12,West,270,8.0,16.0,28,-99.99,,,-99.99,,2013-03-30 21:34:00,
2013-03-30 17:43:00,57.0,25.0,30.12,WNW,300,10.0,-999.0,28,-99.99,,,-99.99,,2013-03-30 21:43:00,
2013-03-30 17:52:00,57.0,25.0,30.13,WSW,240,13.0,-999.0,28,-99.99,,,-99.99,,2013-03-30 21:52:00,
2013-03-30 18:03:00,57.0,25.0,30.13,WSW,240,13.0,-999.0,28,-99.99,,,-99.99,,2013-03-30 22:03:00,
2013-03-30 18:13:00,55.0,25.0,30.13,West,270,9.0,-999.0,30,-99.99,,,-99.99,,2013-03-30 22:13:00,
2013-03-30 18:23:00,55.0,27.0,30.13,WSW,240,12.0,-999.0,32,-99.99,,,-99.99,,2013-03-30 22:23:00,
2013-03-30 18:33:00,54.0,28.0,30.13,WSW,240,10.0,-999.0,37,-99.99,,,-99.99,,2013-03-30 22:33:00,
2013-03-30 18:43:00,54.0,30.0,30.13,WSW,240,10.0,-999.0,40,-99.99,,,-99.99,,2013-03-30 22:43:00,
2013-03-30 18:53:00,50.0,32.0,30.14,WSW,240,8.0,-999.0,49,-99.99,,,-99.99,,2013-03-30 22:53:00,
2013-03-30 19:02:00,50.0,32.0,30.14,WSW,240,8.0,-999.0,49,-99.99,,,-99.99,,2013-03-30 23:02:00,
2013-03-30 19:12:00,50.0,32.0,30.14,WSW,240,6.0,-999.0,49,-99.99,,,-99.99,,2013-03-30 23:12:00,
2013-03-30 19:22:00,48.0,32.0,30.14,WSW,240,5.0,-999.0,53,-99.99,,,-99.99,,2013-03-30 23:22:00,
2013-03-30 19:33:00,48.0,32.0,30.14,WSW,250,6.0,-999.0,53,-99.99,,,-99.99,,2013-03-30 23:33:00,
2013-03-30 19:42:00,46.0,32.0,30.14,SW,230,6.0,-999.0,57,-99.99,,,-99.99,,2013-03-30 23:42:00,
2013-03-30 19:52:00,46.0,32.0,30.15,SW,220,5.0,-999.0,57,-99.99,,,-99.99,,2013-03-30 23:52:00,
2013-03-30 20:03:00,46.0,32.0,30.15,SW,220,5.0,-999.0,57,-99.99,,,-99.99,,2013-03-31 00:03:00,
2013-03-30 20:12:00,46.0,32.0,30.15,SW,230,3.0,-999.0,57,-99.99,,,-99.99,,2013-03-31 00:12:00,
2013-03-30 20:22:00,45.0,30.0,30.15,SW,220,5.0,-999.0,56,-99.99,,,-99.99,,2013-03-31 00:22:00,
2013-03-30 20:32:00,45.0,28.0,30.15,SW,220,3.0,-999.0,52,-99.99,,,-99.99,,2013-03-31 00:32:00,
2013-03-30 20:42:00,45.0,28.0,30.16,SSW,210,5.0,-999.0,52,-99.99,,,-99.99,,2013-03-31 00:42:00,
2013-03-30 20:52:00,45.0,28.0,30.16,SW,220,3.0,-999.0,52,-99.99,,,-99.99,,2013-03-31 00:52:00,
2013-03-30 21:02:00,45.0,28.0,30.16,SW,220,3.0,-999.0,52,-99.99,,,-99.99,,2013-03-31 01:02:00,
2013-03-30 21:12:00,43.0,28.0,30.16,SSW,210,3.0,-999.0,56,-99.99,,,-99.99,,2013-03-31 01:12:00,
2013-03-30 21:22:00,43.0,28.0,30.16,SW,220,3.0,-999.0,56,-99.99,,,-99.99,,2013-03-31 01:22:00,
2013-03-30 21:32:00,41.0,28.0,30.17,SSW,210,3.0,-999.0,60,-99.99,,,-99.99,,2013-03-31 01:32:00,
2013-03-30 21:42:00,43.0,28.0,30.17,SW,220,5.0,-999.0,56,-99.99,,,-99.99,,2013-03-31 01:42:00,
2013-03-30 21:52:00,41.0,28.0,30.17,SW,230,5.0,-999.0,60,-99.99,,,-99.99,,2013-03-31 01:52:00,
2013-03-30 22:02:00,41.0,28.0,30.17,SW,230,5.0,-999.0,60,-99.99,,,-99.99,,2013-03-31 02:02:00,
2013-03-30 22:13:00,41.0,28.0,30.18,SW,230,5.0,-999.0,60,-99.99,,,-99.99,,2013-03-31 02:13:00,
2013-03-30 22:22:00,43.0,28.0,30.19,WSW,240,5.0,-999.0,56,-99.99,,,-99.99,,2013-03-31 02:22:00,
2013-03-30 22:32:00,41.0,27.0,30.19,SW,220,5.0,-999.0,56,-99.99,,,-99.99,,2013-03-31 02:32:00,
2013-03-30 22:43:00,43.0,28.0,30.19,SW,220,5.0,-999.0,56,-99.99,,,-99.99,,2013-03-31 02:43:00,
2013-03-30 22:52:00,41.0,27.0,30.18,SSW,200,5.0,-999.0,56,-99.99,,,-99.99,,2013-03-31 02:52:00,
2013-03-30 23:02:00,41.0,27.0,30.18,SSW,200,5.0,-999.0,56,-99.99,,,-99.99,,2013-03-31 03:02:00,
2013-03-30 23:12:00,41.0,28.0,30.18,SSW,210,6.0,-999.0,60,-99.99,,,-99.99,,2013-03-31 03:12:00,
2013-03-30 23:22:00,43.0,28.0,30.18,SSW,200,7.0,-999.0,56,-99.99,,,-99.99,,2013-03-31 03:22:00,
2013-03-30 23:33:00,41.0,30.0,30.18,SSW,210,5.0,-999.0,65,-99.99,,,-99.99,,2013-03-31 03:33:00,
2013-03-30 23:43:00,41.0,30.0,30.18,SSW,200,5.0,-999.0,65,-99.99,,,-99.99,,2013-03-31 03:43:00,
2013-03-30 23:53:00,41.0,32.0,30.18,SSW,210,7.0,-999.0,70,-99.99,,,-99.99,,2013-03-31 03:53:00,